Time;durP1;ratioP1;P1;durP2;ratioP2;P2;SDS_P1;SDS_P2;PMS_P1;PMS_P2;Temp;Humidity;BMP_temperature;BMP_pressure;BME280_temperature;BME280_humidity;BME280_pressure;Samples;Min_cycle;Max_cycle;Signal;HPM_P1;HPM_P2
2024/02/11 00:02:11;;;;;;;21.17;10.75;;;10.60;99.90;;;;;;5055678;28;20390;-78
2024/02/11 00:04:37;;;;;;;20.95;9.77;;;10.60;99.90;;;;;;5055596;28;20033;-78
2024/02/11 00:07:03;;;;;;;18.20;9.02;;;10.60;99.90;;;;;;5071340;28;20032;-78
2024/02/11 00:09:29;;;;;;;22.60;10.80;;;10.60;99.90;;;;;;5056467;28;20029;-77
2024/02/11 00:11:55;;;;;;;20.85;10.68;;;10.50;99.90;;;;;;5055783;28;20108;-77
2024/02/11 00:14:21;;;;;;;19.90;10.65;;;10.60;99.90;;;;;;5056133;28;20498;-77
2024/02/11 00:16:47;;;;;;;23.73;10.63;;;10.50;99.90;;;;;;5055524;28;20033;-78
2024/02/11 00:19:12;;;;;;;20.60;10.32;;;10.50;99.90;;;;;;5056498;28;20025;-78
2024/02/11 00:21:38;;;;;;;21.75;10.40;;;10.60;99.90;;;;;;5056507;28;20033;-78
2024/02/11 00:24:04;;;;;;;19.55;10.25;;;10.60;99.90;;;;;;5054857;28;20029;-78
2024/02/11 00:26:30;;;;;;;20.23;10.05;;;10.50;99.90;;;;;;5056144;28;20032;-77
2024/02/11 00:28:57;;;;;;;21.52;10.55;;;10.60;99.90;;;;;;5054575;28;20088;-77
2024/02/11 00:31:25;;;;;;;20.92;11.23;;;10.50;99.90;;;;;;5054707;28;20025;-77
2024/02/11 00:33:55;;;;;;;21.40;10.25;;;10.60;99.90;;;;;;5055106;28;20021;-77
2024/02/11 00:36:21;;;;;;;21.42;10.25;;;10.60;99.90;;;;;;5056652;28;20067;-78
2024/02/11 00:38:46;;;;;;;23.02;10.82;;;10.60;99.90;;;;;;5054653;28;20049;-77
2024/02/11 00:41:12;;;;;;;22.88;11.25;;;10.70;99.90;;;;;;5055900;28;20036;-78
2024/02/11 00:43:37;;;;;;;29.75;11.13;;;10.60;99.90;;;;;;5054599;28;20057;-78
2024/02/11 00:46:04;;;;;;;22.88;10.60;;;10.60;99.90;;;;;;5053966;28;20055;-78
2024/02/11 00:48:30;;;;;;;22.48;11.10;;;10.60;99.90;;;;;;5055829;28;20162;-77
2024/02/11 00:50:56;;;;;;;19.77;10.27;;;10.60;99.90;;;;;;5055324;28;20485;-78
2024/02/11 00:53:25;;;;;;;21.80;10.85;;;10.60;99.90;;;;;;5054954;28;20028;-77
2024/02/11 00:55:51;;;;;;;26.58;11.18;;;10.60;99.90;;;;;;5054036;28;20028;-77
2024/02/11 00:58:18;;;;;;;22.17;10.73;;;10.60;99.90;;;;;;5054777;28;20033;-78
2024/02/11 01:00:44;;;;;;;23.77;11.80;;;10.60;99.90;;;;;;5055535;28;20044;-76
2024/02/11 01:03:11;;;;;;;21.30;11.45;;;10.60;99.90;;;;;;5054520;28;20032;-78
2024/02/11 01:05:37;;;;;;;23.52;12.05;;;10.60;99.90;;;;;;5054446;28;20075;-78
2024/02/11 01:08:02;;;;;;;23.27;11.77;;;10.60;99.90;;;;;;5053847;28;20033;-77
2024/02/11 01:10:31;;;;;;;23.85;12.07;;;10.60;99.90;;;;;;5055333;28;20040;-78
2024/02/11 01:12:56;;;;;;;20.48;10.65;;;10.60;99.90;;;;;;5054959;28;20029;-78
2024/02/11 01:15:26;;;;;;;24.20;11.10;;;10.70;99.90;;;;;;5055496;28;20036;-78
2024/02/11 01:17:52;;;;;;;22.75;11.05;;;10.70;99.90;;;;;;5053604;28;20033;-78
2024/02/11 01:20:17;;;;;;;23.52;11.25;;;10.70;99.90;;;;;;5054509;28;20466;-78
2024/02/11 01:22:46;;;;;;;21.95;11.50;;;10.70;99.90;;;;;;5054267;28;20032;-77
2024/02/11 01:25:19;;;;;;;23.20;11.70;;;10.60;99.90;;;;;;5055542;28;20108;-78
2024/02/11 01:27:49;;;;;;;21.65;11.00;;;10.60;99.90;;;;;;5055092;28;20025;-78
2024/02/11 01:30:15;;;;;;;23.27;11.88;;;10.60;99.90;;;;;;5054051;28;20056;-78
2024/02/11 01:32:41;;;;;;;9.55;5.40;;;10.60;99.90;;;;;;5055424;28;20087;-78
2024/02/11 01:35:07;;;;;;;8.55;3.65;;;10.50;99.90;;;;;;5053390;28;20460;-78
2024/02/11 01:37:34;;;;;;;3.38;2.00;;;10.30;99.90;;;;;;5055297;28;20040;-78
2024/02/11 01:39:59;;;;;;;1.90;1.27;;;10.10;99.90;;;;;;5053401;28;20029;-78
2024/02/11 01:42:25;;;;;;;2.38;1.20;;;10.00;99.90;;;;;;5053802;28;20060;-78
2024/02/11 01:44:51;;;;;;;2.33;1.10;;;9.90;99.90;;;;;;5053392;28;20029;-78
2024/02/11 01:47:17;;;;;;;1.77;1.00;;;9.80;99.90;;;;;;5054563;28;20399;-78
2024/02/11 01:49:43;;;;;;;1.63;0.55;;;9.70;99.90;;;;;;5055056;28;20036;-79
2024/02/11 01:52:10;;;;;;;2.63;0.77;;;9.70;99.90;;;;;;5053550;28;20078;-78
2024/02/11 01:54:36;;;;;;;0.60;0.40;;;9.70;99.90;;;;;;5053761;28;20025;-78
2024/02/11 01:57:02;;;;;;;0.40;0.40;;;9.50;99.90;;;;;;5054311;28;20033;-78
2024/02/11 01:59:32;;;;;;;1.38;0.30;;;9.50;99.90;;;;;;5054616;28;20029;-78
2024/02/11 02:01:58;;;;;;;0.40;0.20;;;9.50;99.90;;;;;;5054143;28;20029;-78
2024/02/11 02:04:25;;;;;;;0.95;0.17;;;9.40;99.90;;;;;;5053291;28;20025;-77
2024/02/11 02:06:50;;;;;;;0.40;0.13;;;9.30;99.90;;;;;;5052326;28;20029;-77
2024/02/11 02:09:18;;;;;;;0.82;0.28;;;9.30;99.90;;;;;;5053149;28;20029;-78
2024/02/11 02:11:43;;;;;;;0.73;0.40;;;9.20;99.90;;;;;;5054456;28;20036;-78
2024/02/11 02:14:09;;;;;;;2.28;0.20;;;9.10;99.90;;;;;;5052426;28;20037;-78
2024/02/11 02:16:34;;;;;;;0.25;0.17;;;9.10;99.90;;;;;;5054164;28;20044;-78
2024/02/11 02:19:01;;;;;;;0.10;0.10;;;9.00;99.90;;;;;;5052581;28;20021;-78
2024/02/11 02:21:27;;;;;;;0.40;0.30;;;9.00;99.90;;;;;;5053472;28;20078;-78
2024/02/11 02:23:53;;;;;;;0.22;0.20;;;9.00;99.90;;;;;;5052467;28;20063;-78
2024/02/11 02:26:18;;;;;;;0.38;0.20;;;8.90;99.90;;;;;;5052799;28;20027;-78
2024/02/11 02:28:44;;;;;;;0.63;0.20;;;8.90;99.90;;;;;;5052912;28;20029;-78
2024/02/11 02:31:10;;;;;;;0.10;0.10;;;8.80;99.90;;;;;;5053461;28;20511;-78
2024/02/11 02:33:36;;;;;;;0.20;0.20;;;8.70;99.90;;;;;;5052598;28;20024;-78
2024/02/11 02:36:03;;;;;;;1.52;0.30;;;8.70;99.90;;;;;;5052171;28;20116;-78
2024/02/11 02:38:29;;;;;;;0.30;0.30;;;8.70;99.90;;;;;;5053650;28;20100;-78
2024/02/11 02:40:54;;;;;;;0.47;0.40;;;8.70;99.90;;;;;;5051939;28;20079;-78
2024/02/11 02:43:20;;;;;;;0.57;0.57;;;8.60;99.90;;;;;;5051801;28;20051;-77
2024/02/11 02:45:45;;;;;;;1.13;0.70;;;8.60;99.90;;;;;;5053777;28;20033;-79
2024/02/11 02:48:11;;;;;;;2.30;0.63;;;8.50;99.90;;;;;;5051407;28;20029;-78
2024/02/11 02:50:37;;;;;;;1.02;0.65;;;8.60;99.90;;;;;;5053679;28;20086;-78
2024/02/11 02:53:03;;;;;;;1.00;0.57;;;8.50;99.90;;;;;;5051734;28;20462;-78
2024/02/11 02:55:29;;;;;;;2.22;0.73;;;8.50;99.90;;;;;;5052419;28;20021;-78
2024/02/11 02:57:55;;;;;;;1.15;0.90;;;8.40;99.90;;;;;;5052894;28;20539;-77
2024/02/11 03:00:20;;;;;;;0.77;0.75;;;8.40;99.90;;;;;;5052191;28;20481;-77
2024/02/11 03:02:46;;;;;;;2.40;0.77;;;8.40;99.90;;;;;;5053177;28;20025;-77
2024/02/11 03:05:12;;;;;;;1.55;0.82;;;8.40;99.90;;;;;;5051597;28;20500;-77
2024/02/11 03:07:41;;;;;;;1.48;0.68;;;8.40;99.90;;;;;;5052214;28;20032;-77
2024/02/11 03:10:07;;;;;;;2.78;0.90;;;8.40;99.90;;;;;;5051399;28;20037;-78
2024/02/11 03:12:33;;;;;;;0.68;0.63;;;8.40;99.90;;;;;;5053232;28;20041;-77
2024/02/11 03:14:59;;;;;;;1.10;0.50;;;8.40;99.90;;;;;;5051481;28;20029;-77
2024/02/11 03:17:24;;;;;;;1.15;0.63;;;8.40;99.90;;;;;;5053212;28;20025;-78
2024/02/11 03:19:50;;;;;;;1.10;0.80;;;8.40;99.90;;;;;;5053342;28;20104;-79
2024/02/11 03:22:15;;;;;;;1.73;0.82;;;8.40;99.90;;;;;;5052749;28;20101;-78
2024/02/11 03:24:44;;;;;;;1.80;0.70;;;8.40;99.90;;;;;;5053226;28;20036;-79
2024/02/11 03:27:10;;;;;;;1.52;0.70;;;8.30;99.90;;;;;;5051631;28;20029;-79
2024/02/11 03:29:36;;;;;;;0.63;0.50;;;8.30;99.90;;;;;;5053229;28;20029;-79
2024/02/11 03:32:01;;;;;;;0.60;0.50;;;8.30;99.90;;;;;;5051295;28;20032;-79
2024/02/11 03:34:28;;;;;;;1.35;0.82;;;8.30;99.90;;;;;;5053054;28;20063;-79
2024/02/11 03:36:54;;;;;;;0.55;0.50;;;8.30;99.90;;;;;;5051704;28;20035;-74
2024/02/11 03:39:20;;;;;;;0.70;0.65;;;8.20;99.90;;;;;;5051967;28;20025;-78
2024/02/11 03:41:46;;;;;;;0.80;0.55;;;8.20;99.90;;;;;;5051631;28;20347;-78
2024/02/11 03:44:12;;;;;;;1.70;0.85;;;8.10;99.90;;;;;;5052686;28;20036;-79
2024/02/11 03:46:37;;;;;;;0.80;0.73;;;8.10;99.90;;;;;;5052131;28;20033;-79
2024/02/11 03:49:03;;;;;;;1.30;0.60;;;8.10;99.90;;;;;;5051492;28;20503;-79
2024/02/11 03:51:29;;;;;;;3.30;0.77;;;8.10;99.90;;;;;;5053159;28;20025;-78
2024/02/11 03:53:59;;;;;;;0.95;0.60;;;8.10;99.90;;;;;;5051060;28;20492;-76
2024/02/11 03:56:28;;;;;;;1.83;0.77;;;8.10;99.90;;;;;;5051615;28;20032;-77
2024/02/11 03:58:54;;;;;;;1.38;1.10;;;8.10;99.90;;;;;;5051720;28;20025;-78
2024/02/11 04:01:20;;;;;;;1.10;0.90;;;8.10;99.90;;;;;;5051794;28;20437;-77
2024/02/11 04:03:46;;;;;;;0.88;0.65;;;8.00;99.90;;;;;;5053038;28;20096;-77
2024/02/11 04:06:11;;;;;;;1.10;1.00;;;8.00;99.90;;;;;;5050821;28;20116;-77
2024/02/11 04:08:42;;;;;;;1.42;0.77;;;8.00;99.90;;;;;;5051974;28;20029;-77
2024/02/11 04:11:12;;;;;;;1.27;0.90;;;8.00;99.90;;;;;;5052272;28;20025;-77
2024/02/11 04:13:37;;;;;;;2.10;0.90;;;8.00;99.90;;;;;;5051489;28;20143;-77
2024/02/11 04:16:11;;;;;;;0.98;0.80;;;7.90;99.90;;;;;;5052041;28;20477;-77
2024/02/11 04:18:40;;;;;;;1.58;0.90;;;7.90;99.90;;;;;;5051873;28;20441;-78
2024/02/11 04:21:05;;;;;;;0.70;0.70;;;7.90;99.90;;;;;;5051678;28;20033;-77
2024/02/11 04:23:35;;;;;;;1.48;0.98;;;7.90;99.90;;;;;;5051707;28;20074;-79
2024/02/11 04:26:08;;;;;;;1.42;0.80;;;7.90;99.90;;;;;;5050777;28;20033;-79
2024/02/11 04:28:35;;;;;;;1.08;0.70;;;7.80;99.90;;;;;;5052203;28;20039;-78
2024/02/11 04:31:03;;;;;;;0.80;0.70;;;7.80;99.90;;;;;;5050891;28;20466;-78
2024/02/11 04:33:32;;;;;;;1.08;0.82;;;7.80;99.90;;;;;;5052602;28;20429;-79
2024/02/11 04:36:00;;;;;;;1.83;0.90;;;7.80;99.90;;;;;;5051963;28;20025;-77
2024/02/11 04:38:27;;;;;;;0.75;0.70;;;7.70;99.90;;;;;;5052373;28;20086;-79
2024/02/11 04:40:53;;;;;;;2.13;1.02;;;7.70;99.90;;;;;;5051482;28;20035;-79
2024/02/11 04:43:19;;;;;;;0.98;0.70;;;7.70;99.90;;;;;;5051730;28;20376;-79
2024/02/11 04:45:44;;;;;;;1.25;0.88;;;7.70;99.90;;;;;;5055053;28;20374;-79
2024/02/11 04:48:11;;;;;;;3.22;0.73;;;7.70;99.90;;;;;;5054443;28;20052;-77
2024/02/11 04:50:37;;;;;;;1.25;0.80;;;7.70;99.90;;;;;;5054875;28;20032;-77
2024/02/11 04:53:03;;;;;;;1.08;0.90;;;7.60;99.90;;;;;;5055376;28;20074;-77
2024/02/11 04:55:38;;;;;;;1.02;0.73;;;7.70;99.90;;;;;;5056028;28;20090;-78
2024/02/11 04:58:07;;;;;;;0.75;0.70;;;7.60;99.90;;;;;;5055290;28;20029;-78
2024/02/11 05:00:35;;;;;;;0.80;0.70;;;7.60;99.90;;;;;;5055787;28;20025;-78
2024/02/11 05:03:06;;;;;;;1.65;0.70;;;7.60;99.90;;;;;;5053868;28;20048;-78
2024/02/11 05:05:33;;;;;;;1.30;0.80;;;7.60;99.90;;;;;;5055872;28;20025;-78
2024/02/11 05:08:03;;;;;;;1.40;0.60;;;7.60;99.90;;;;;;5054631;28;20036;-75
2024/02/11 05:10:34;;;;;;;1.08;0.80;;;7.60;99.90;;;;;;5054747;28;20060;-78
2024/02/11 05:13:04;;;;;;;1.23;0.70;;;7.60;99.90;;;;;;5055330;28;20039;-76
2024/02/11 05:15:34;;;;;;;0.75;0.65;;;7.60;99.90;;;;;;5055743;28;20025;-78
2024/02/11 05:18:04;;;;;;;1.13;0.50;;;7.60;99.90;;;;;;5055152;28;20091;-75
2024/02/11 05:20:31;;;;;;;1.77;0.60;;;7.50;99.90;;;;;;5055594;28;20021;-78
2024/02/11 05:22:58;;;;;;;0.80;0.70;;;7.50;99.90;;;;;;5054521;28;20120;-78
2024/02/11 05:25:25;;;;;;;1.10;0.60;;;7.50;99.90;;;;;;5053893;28;20116;-78
2024/02/11 05:27:59;;;;;;;1.55;0.70;;;7.50;99.90;;;;;;5055387;28;20028;-78
2024/02/11 05:30:27;;;;;;;0.95;0.70;;;7.50;99.90;;;;;;5055126;28;20417;-78
2024/02/11 05:32:54;;;;;;;0.57;0.50;;;7.50;99.90;;;;;;5054073;28;20068;-77
2024/02/11 05:35:24;;;;;;;0.80;0.52;;;7.50;99.90;;;;;;5054505;28;20401;-78
2024/02/11 05:37:58;;;;;;;1.25;0.60;;;7.50;99.90;;;;;;5055059;28;20037;-78
2024/02/11 05:40:26;;;;;;;0.93;0.60;;;7.50;99.90;;;;;;5054728;28;20067;-78
2024/02/11 05:42:51;;;;;;;0.90;0.80;;;7.50;99.90;;;;;;5054779;28;20041;-78
2024/02/11 05:45:17;;;;;;;0.90;0.60;;;7.50;99.90;;;;;;5053394;28;20040;-78
2024/02/11 05:47:43;;;;;;;1.00;0.60;;;7.50;99.90;;;;;;5054047;28;20033;-78
2024/02/11 05:50:10;;;;;;;1.75;0.60;;;7.50;99.90;;;;;;5052942;28;20501;-77
2024/02/11 05:52:35;;;;;;;0.73;0.60;;;7.50;99.90;;;;;;5053824;28;20032;-78
2024/02/11 05:55:02;;;;;;;0.77;0.68;;;7.50;99.90;;;;;;5053706;28;20029;-78
2024/02/11 05:57:28;;;;;;;1.08;0.50;;;7.50;99.90;;;;;;5052460;28;20056;-78
2024/02/11 05:59:55;;;;;;;0.80;0.50;;;7.50;99.90;;;;;;5053672;28;20021;-78
2024/02/11 06:02:21;;;;;;;0.98;0.40;;;7.60;99.90;;;;;;5052886;28;20021;-78
2024/02/11 06:04:49;;;;;;;0.57;0.52;;;7.60;99.90;;;;;;5053626;28;20532;-78
2024/02/11 06:07:15;;;;;;;1.73;0.70;;;7.50;99.90;;;;;;5052980;28;20021;-78
2024/02/11 06:09:40;;;;;;;1.52;0.80;;;7.50;99.90;;;;;;5053481;28;20025;-77
2024/02/11 06:12:06;;;;;;;1.20;0.90;;;7.50;99.90;;;;;;5053550;28;20033;-77
2024/02/11 06:14:33;;;;;;;0.98;0.70;;;7.60;99.90;;;;;;5052880;28;20477;-78
2024/02/11 06:16:59;;;;;;;1.90;0.60;;;7.50;99.90;;;;;;5053279;28;20162;-77
2024/02/11 06:19:25;;;;;;;1.40;0.77;;;7.50;99.90;;;;;;5052697;28;20460;-78
2024/02/11 06:21:51;;;;;;;1.20;0.82;;;7.50;99.90;;;;;;5053224;28;20521;-78
2024/02/11 06:24:16;;;;;;;2.28;1.02;;;7.50;99.90;;;;;;5053551;28;20347;-78
2024/02/11 06:26:43;;;;;;;1.88;1.05;;;7.60;99.90;;;;;;5054065;28;20036;-78
2024/02/11 06:29:08;;;;;;;2.60;1.10;;;7.60;99.90;;;;;;5053652;28;20021;-78
2024/02/11 06:31:34;;;;;;;2.45;1.15;;;7.60;99.90;;;;;;5053311;28;20029;-77
2024/02/11 06:34:00;;;;;;;1.88;1.05;;;7.60;99.90;;;;;;5053133;28;20035;-78
2024/02/11 06:36:26;;;;;;;3.55;1.50;;;7.70;99.90;;;;;;5052581;28;20032;-78
2024/02/11 06:38:52;;;;;;;1.92;0.90;;;7.70;99.90;;;;;;5053356;28;20119;-78
2024/02/11 06:41:18;;;;;;;1.40;1.08;;;7.70;99.90;;;;;;5052173;28;20036;-79
2024/02/11 06:43:43;;;;;;;2.05;1.23;;;7.70;99.90;;;;;;5052655;28;20056;-79
2024/02/11 06:46:09;;;;;;;3.00;1.33;;;7.70;99.90;;;;;;5052203;28;20029;-78
2024/02/11 06:48:35;;;;;;;2.38;1.25;;;7.70;99.90;;;;;;5055578;28;20033;-77
2024/02/11 06:51:01;;;;;;;3.25;1.35;;;7.70;99.90;;;;;;5053324;28;20021;-80
2024/02/11 06:53:29;;;;;;;3.28;1.40;;;7.70;99.90;;;;;;5052656;28;20029;-79
2024/02/11 06:55:55;;;;;;;2.50;1.48;;;7.70;99.90;;;;;;5052854;28;20075;-78
2024/02/11 06:58:21;;;;;;;2.97;1.40;;;7.70;99.90;;;;;;5051802;28;20025;-78
2024/02/11 07:00:48;;;;;;;3.20;1.77;;;7.70;99.90;;;;;;5052474;28;20025;-78
2024/02/11 07:03:13;;;;;;;8.30;1.80;;;7.70;99.90;;;;;;5053774;28;20135;-78
2024/02/11 07:05:39;;;;;;;3.40;1.70;;;7.70;99.90;;;;;;5054320;28;20025;-79
2024/02/11 07:08:08;;;;;;;3.05;1.75;;;7.70;99.90;;;;;;5052786;28;20040;-79
2024/02/11 07:10:35;;;;;;;4.43;1.80;;;7.70;99.90;;;;;;5053399;28;20031;-79
2024/02/11 07:13:01;;;;;;;5.28;1.77;;;7.70;99.90;;;;;;5053793;28;20029;-79
2024/02/11 07:15:27;;;;;;;4.90;1.92;;;7.80;99.90;;;;;;5051370;28;20044;-77
2024/02/11 07:17:53;;;;;;;6.53;2.20;;;7.80;99.90;;;;;;5053092;28;20120;-78
2024/02/11 07:20:19;;;;;;;3.92;1.98;;;7.80;99.90;;;;;;5052504;28;20025;-77
2024/02/11 07:22:45;;;;;;;3.53;1.88;;;7.80;99.90;;;;;;5051472;28;20120;-77
2024/02/11 07:25:12;;;;;;;2.80;1.80;;;7.80;99.90;;;;;;5052214;28;20036;-77
2024/02/11 07:27:39;;;;;;;5.18;2.08;;;7.80;99.90;;;;;;5051705;28;20132;-78
2024/02/11 07:30:06;;;;;;;6.00;2.03;;;7.80;99.90;;;;;;5053042;28;20069;-78
2024/02/11 07:32:31;;;;;;;5.28;2.17;;;7.80;99.90;;;;;;5051137;28;20021;-77
2024/02/11 07:34:57;;;;;;;4.40;2.05;;;7.90;99.90;;;;;;5050893;28;20547;-77
2024/02/11 07:37:24;;;;;;;4.25;2.00;;;7.90;99.90;;;;;;5057389;28;20040;-77
2024/02/11 07:39:50;;;;;;;8.60;2.15;;;7.90;99.90;;;;;;5063547;28;20032;-77
2024/02/11 07:42:16;;;;;;;7.35;2.67;;;7.90;99.90;;;;;;5070081;28;20088;-78
2024/02/11 07:44:42;;;;;;;4.07;2.05;;;8.00;99.90;;;;;;5052563;28;20470;-78
2024/02/11 07:47:09;;;;;;;6.47;2.55;;;7.90;99.90;;;;;;5052525;28;20078;-78
2024/02/11 07:49:36;;;;;;;4.20;2.28;;;7.90;99.90;;;;;;5052552;28;20123;-77
2024/02/11 07:52:02;;;;;;;7.50;2.38;;;8.00;99.90;;;;;;5051038;28;20475;-77
2024/02/11 07:54:27;;;;;;;11.05;2.80;;;8.00;99.90;;;;;;5050388;28;20474;-78
2024/02/11 07:56:53;;;;;;;7.28;2.80;;;8.00;99.90;;;;;;5052369;28;20094;-77
2024/02/11 07:59:19;;;;;;;7.55;2.33;;;8.10;99.90;;;;;;5050709;28;20029;-77
2024/02/11 08:01:45;;;;;;;6.53;2.17;;;8.00;99.90;;;;;;5057902;28;20126;-77
2024/02/11 08:04:11;;;;;;;5.95;2.15;;;8.10;99.90;;;;;;5057056;28;20044;-77
2024/02/11 08:06:36;;;;;;;4.95;2.33;;;8.00;99.90;;;;;;5052401;28;20108;-78
2024/02/11 08:09:02;;;;;;;5.07;2.25;;;8.10;99.90;;;;;;5051732;28;20039;-78
2024/02/11 08:11:33;;;;;;;7.22;2.70;;;8.10;99.90;;;;;;5051960;28;20017;-77
2024/02/11 08:13:58;;;;;;;8.45;2.45;;;8.10;99.90;;;;;;5051347;28;20036;-77
2024/02/11 08:16:25;;;;;;;10.35;3.33;;;8.10;99.90;;;;;;5050814;28;20078;-77
2024/02/11 08:18:54;;;;;;;8.60;2.85;;;8.10;99.90;;;;;;5049854;28;20024;-77
2024/02/11 08:21:20;;;;;;;3.72;2.33;;;8.10;99.90;;;;;;5071460;28;20484;-77
2024/02/11 08:23:45;;;;;;;6.55;2.72;;;8.20;99.90;;;;;;5071244;28;20025;-77
2024/02/11 08:26:11;;;;;;;4.68;2.10;;;8.20;99.90;;;;;;5055503;28;20459;-74
2024/02/11 08:28:36;;;;;;;6.53;2.40;;;8.20;99.90;;;;;;5054565;28;20120;-77
2024/02/11 08:31:04;;;;;;;7.10;2.40;;;8.20;99.90;;;;;;5056001;28;20512;-78
2024/02/11 08:33:29;;;;;;;7.55;2.50;;;8.20;99.90;;;;;;5055684;28;20021;-78
2024/02/11 08:35:56;;;;;;;6.55;2.72;;;8.20;99.90;;;;;;5071837;28;20040;-77
2024/02/11 08:38:22;;;;;;;7.28;2.28;;;8.20;99.90;;;;;;5055883;28;20032;-78
2024/02/11 08:40:48;;;;;;;5.75;2.25;;;8.20;99.90;;;;;;5054492;28;20033;-78
2024/02/11 08:43:13;;;;;;;7.95;2.38;;;8.30;99.90;;;;;;5054162;28;20049;-78
2024/02/11 08:45:39;;;;;;;8.38;2.78;;;8.30;99.90;;;;;;5055031;28;20451;-78
2024/02/11 08:48:05;;;;;;;9.93;3.03;;;8.30;99.90;;;;;;5055946;28;20025;-79
2024/02/11 08:50:31;;;;;;;5.00;2.58;;;8.40;99.90;;;;;;5055439;28;20029;-78
2024/02/11 08:52:57;;;;;;;8.48;2.70;;;8.50;99.90;;;;;;5056063;28;20032;-78
2024/02/11 08:55:22;;;;;;;11.57;2.83;;;8.50;99.90;;;;;;5054154;28;20403;-79
2024/02/11 08:57:48;;;;;;;6.50;2.55;;;8.50;99.90;;;;;;5056009;28;20082;-79
2024/02/11 09:00:18;;;;;;;7.28;2.72;;;8.60;99.90;;;;;;5053883;28;20036;-77
2024/02/11 09:02:44;;;;;;;4.88;2.47;;;8.60;99.90;;;;;;5053585;28;20032;-76
2024/02/11 09:05:10;;;;;;;11.45;2.63;;;8.60;99.90;;;;;;5053355;28;20033;-76
2024/02/11 09:07:42;;;;;;;6.43;3.13;;;8.70;99.90;;;;;;5051358;28;20116;-77
2024/02/11 09:10:08;;;;;;;8.68;2.33;;;8.60;99.90;;;;;;5052136;28;20095;-77
2024/02/11 09:12:34;;;;;;;6.43;2.45;;;8.60;99.90;;;;;;5067961;28;20040;-77
2024/02/11 09:15:00;;;;;;;7.05;2.67;;;8.60;99.90;;;;;;5068818;28;20025;-78
2024/02/11 09:17:27;;;;;;;9.05;2.88;;;8.70;99.90;;;;;;5052107;28;20032;-77
2024/02/11 09:19:53;;;;;;;4.70;2.33;;;8.60;99.90;;;;;;5053639;28;20090;-78
2024/02/11 09:22:18;;;;;;;6.45;3.17;;;8.80;99.90;;;;;;5051992;28;20056;-76
2024/02/11 09:24:44;;;;;;;7.95;3.58;;;8.80;99.90;;;;;;5053497;28;20028;-78
2024/02/11 09:27:13;;;;;;;5.60;2.38;;;8.80;99.90;;;;;;5052543;28;20473;-76
2024/02/11 09:29:39;;;;;;;6.30;2.38;;;8.90;99.90;;;;;;5052183;28;20044;-78
2024/02/11 09:32:05;;;;;;;4.75;2.20;;;8.90;99.90;;;;;;5052143;28;20051;-78
2024/02/11 09:34:31;;;;;;;5.97;3.08;;;8.90;99.90;;;;;;5051232;28;20071;-77
2024/02/11 09:36:57;;;;;;;6.25;2.25;;;8.80;99.90;;;;;;5052628;28;20028;-77
2024/02/11 09:39:22;;;;;;;5.38;2.33;;;8.80;99.90;;;;;;5068338;28;20033;-79
2024/02/11 09:41:48;;;;;;;7.97;2.35;;;8.80;99.90;;;;;;5052499;28;20041;-78
2024/02/11 09:44:18;;;;;;;9.20;3.03;;;8.80;99.90;;;;;;5068766;28;20037;-79
2024/02/11 09:46:46;;;;;;;5.47;2.45;;;8.80;99.90;;;;;;5053766;28;20033;-77
2024/02/11 09:49:17;;;;;;;6.60;2.70;;;8.90;99.90;;;;;;5052450;28;20033;-78
2024/02/11 09:51:45;;;;;;;6.78;2.35;;;8.90;99.90;;;;;;5044011;28;20108;-78
2024/02/11 09:54:13;;;;;;;7.07;2.50;;;8.90;99.90;;;;;;5051852;28;20021;-78
2024/02/11 09:56:39;;;;;;;5.55;2.40;;;9.00;99.90;;;;;;5050851;28;20112;-76
2024/02/11 09:59:05;;;;;;;6.03;2.13;;;8.90;99.90;;;;;;5052120;28;20032;-77
2024/02/11 10:01:32;;;;;;;9.32;2.67;;;8.90;99.90;;;;;;5051119;28;20095;-78
2024/02/11 10:04:00;;;;;;;7.75;2.47;;;9.00;99.90;;;;;;5052685;28;20028;-79
2024/02/11 10:06:42;;;;;;;6.32;2.33;;;8.90;99.90;;;;;;5067290;28;20025;-79
2024/02/11 10:09:12;;;;;;;9.23;2.67;;;9.00;99.90;;;;;;5051713;28;20060;-77
2024/02/11 10:11:39;;;;;;;8.10;3.75;;;9.00;99.90;;;;;;5051606;28;20021;-78
2024/02/11 10:14:09;;;;;;;4.80;2.38;;;9.00;99.90;;;;;;5050719;28;20037;-78
2024/02/11 10:16:35;;;;;;;8.05;2.50;;;9.00;99.90;;;;;;5050994;28;20021;-78
2024/02/11 10:19:01;;;;;;;11.98;2.90;;;9.00;99.90;;;;;;5052808;28;20020;-78
2024/02/11 10:21:27;;;;;;;5.03;2.20;;;9.00;99.90;;;;;;5052163;28;20030;-80
2024/02/11 10:23:54;;;;;;;5.63;2.28;;;9.00;99.90;;;;;;5052823;28;20036;-79
2024/02/11 10:26:20;;;;;;;5.60;2.50;;;9.10;99.90;;;;;;5067441;28;20056;-81
2024/02/11 10:28:46;;;;;;;7.93;2.30;;;9.10;99.90;;;;;;5066486;28;20114;-80
2024/02/11 10:31:12;;;;;;;6.80;2.55;;;9.10;99.90;;;;;;5050575;28;20480;-78
2024/02/11 10:33:39;;;;;;;5.30;2.25;;;9.10;99.90;;;;;;5050695;28;20099;-78
2024/02/11 10:36:06;;;;;;;4.32;2.25;;;9.20;99.90;;;;;;5050974;28;20511;-77
2024/02/11 10:38:36;;;;;;;4.88;2.10;;;9.20;99.90;;;;;;5050102;28;20032;-78
2024/02/11 10:41:03;;;;;;;6.80;2.35;;;9.30;99.90;;;;;;5064867;28;20028;-78
2024/02/11 10:43:30;;;;;;;8.82;2.03;;;9.30;99.90;;;;;;5064750;28;20433;-78
2024/02/11 10:45:56;;;;;;;5.05;2.30;;;9.30;99.90;;;;;;5050721;28;20469;-79
2024/02/11 10:48:22;;;;;;;6.53;2.47;;;9.30;99.90;;;;;;5050768;28;20064;-77
2024/02/11 10:51:03;;;;;;;9.05;2.20;;;9.30;99.90;;;;;;5049831;28;20061;-79
2024/02/11 10:53:35;;;;;;;5.28;2.53;;;9.40;99.90;;;;;;5050609;28;20025;-78
2024/02/11 10:56:01;;;;;;;;;;;9.40;99.90;;;;;;5051152;28;20025;-78
2024/02/11 10:58:30;;;;;;;4.43;1.77;;;9.40;99.90;;;;;;5050337;28;20408;-78
2024/02/11 11:00:57;;;;;;;7.90;2.20;;;9.30;99.90;;;;;;5051242;28;20025;-78
2024/02/11 11:03:28;;;;;;;4.05;2.08;;;9.30;99.90;;;;;;5050470;28;20457;-81
2024/02/11 11:05:55;;;;;;;10.18;2.55;;;9.40;99.90;;;;;;5050865;28;20044;-79
2024/02/11 11:08:22;;;;;;;5.07;1.98;;;9.50;99.90;;;;;;5050416;28;20532;-78
2024/02/11 11:10:49;;;;;;;5.43;1.83;;;9.60;99.90;;;;;;5051976;28;20082;-79
2024/02/11 11:13:23;;;;;;;6.15;2.40;;;9.60;99.90;;;;;;5051808;28;20035;-78
2024/02/11 11:15:49;;;;;;;8.75;3.03;;;9.70;99.90;;;;;;5051361;28;20509;-77
2024/02/11 11:18:15;;;;;;;4.93;2.10;;;9.80;99.90;;;;;;5052255;28;20032;-79
2024/02/11 11:20:54;;;;;;;8.07;2.30;;;9.80;99.90;;;;;;5050791;28;20056;-78
2024/02/11 11:23:29;;;;;;;5.63;2.28;;;9.90;99.90;;;;;;5050947;28;20021;-80
2024/02/11 11:25:58;;;;;;;4.72;2.22;;;10.00;99.90;;;;;;5067907;28;20025;-79
2024/02/11 11:28:30;;;;;;;3.17;2.00;;;10.10;99.90;;;;;;5066155;28;20072;-80
2024/02/11 11:30:57;;;;;;;3.50;1.80;;;10.00;99.90;;;;;;5066602;28;20426;-77
2024/02/11 11:33:23;;;;;;;5.60;2.13;;;9.90;99.90;;;;;;5049630;28;20136;-78
2024/02/11 11:35:58;;;;;;;5.10;1.92;;;9.90;99.90;;;;;;5051629;28;20057;-79
2024/02/11 11:38:26;;;;;;;3.53;1.73;;;9.90;99.90;;;;;;5049593;28;20140;-79
2024/02/11 11:40:53;;;;;;;3.28;1.60;;;9.80;99.90;;;;;;5050805;28;20108;-79
2024/02/11 11:43:24;;;;;;;3.13;1.48;;;9.80;99.90;;;;;;5065819;28;20052;-76
2024/02/11 11:46:03;;;;;;;5.78;1.77;;;9.80;99.90;;;;;;5045811;28;20035;-80
2024/02/11 11:48:30;;;;;;;3.75;1.73;;;9.90;99.90;;;;;;5065495;28;20120;-80
2024/02/11 11:51:00;;;;;;;5.65;1.83;;;9.90;99.90;;;;;;5049904;28;20055;-80
2024/02/11 11:53:28;;;;;;;5.82;1.60;;;9.80;99.90;;;;;;5050831;28;20052;-80
2024/02/11 11:56:00;;;;;;;3.20;1.25;;;9.80;99.90;;;;;;5055019;28;20025;-79
2024/02/11 11:58:30;;;;;;;4.15;1.58;;;9.80;99.90;;;;;;5054020;28;20059;-79
2024/02/11 12:01:01;;;;;;;4.78;1.40;;;9.80;99.90;;;;;;5055114;28;20033;-78
2024/02/11 12:03:28;;;;;;;7.90;1.58;;;9.90;99.90;;;;;;5053714;28;20116;-80
2024/02/11 12:05:55;;;;;;;4.95;1.75;;;9.90;99.90;;;;;;5054568;28;20037;-80
2024/02/11 12:08:22;;;;;;;4.30;1.20;;;9.80;99.90;;;;;;5054366;28;20024;-81
2024/02/11 12:11:06;;;;;;;2.78;1.50;;;9.90;99.90;;;;;;5055086;28;20064;-81
2024/02/11 12:13:33;;;;;;;2.92;1.33;;;9.90;99.90;;;;;;5053761;28;20158;-84
2024/02/11 12:16:07;;;;;;;5.53;1.58;;;9.90;99.90;;;;;;5054429;28;20592;-81
2024/02/11 12:18:37;;;;;;;2.75;1.55;;;10.00;99.90;;;;;;5043684;28;20493;-82
2024/02/11 12:21:03;;;;;;;4.68;1.20;;;10.00;99.90;;;;;;5054581;28;20033;-81
2024/02/11 12:23:31;;;;;;;4.63;1.42;;;10.10;99.90;;;;;;5069255;28;20119;-77
2024/02/11 12:25:59;;;;;;;3.97;1.20;;;10.10;99.90;;;;;;5054047;28;20119;-82
2024/02/11 12:28:32;;;;;;;2.63;1.30;;;10.20;99.90;;;;;;5069176;28;20029;-79
2024/02/11 12:31:08;;;;;;;7.32;1.17;;;10.20;99.90;;;;;;5053610;28;20083;-79
2024/02/11 12:33:42;;;;;;;2.63;1.85;;;10.20;99.90;;;;;;5069085;28;20037;-79
2024/02/11 12:36:10;;;;;;;2.78;1.17;;;10.20;99.90;;;;;;5052563;28;20024;-81
2024/02/11 12:38:37;;;;;;;4.22;1.13;;;10.30;99.90;;;;;;5052847;28;20122;-80
2024/02/11 12:41:03;;;;;;;1.85;0.93;;;10.40;99.90;;;;;;5069961;28;20053;-80
2024/02/11 12:43:30;;;;;;;2.65;1.00;;;10.40;99.90;;;;;;5053919;28;20475;-80
2024/02/11 12:45:56;;;;;;;4.10;1.15;;;10.50;99.90;;;;;;5054530;28;20112;-80
2024/02/11 12:48:21;;;;;;;3.55;1.10;;;10.50;99.90;;;;;;5052283;28;20112;-79
2024/02/11 12:50:47;;;;;;;4.57;1.23;;;10.40;99.90;;;;;;5056310;28;20033;-80
2024/02/11 12:53:14;;;;;;;2.28;1.35;;;10.40;99.90;;;;;;5053734;28;20040;-80